createdAt,value
2022-12-08T00:00:07.935Z,75.24
2022-12-08T00:03:34.479Z,75.45
2022-12-08T00:06:57.690Z,75.67
2022-12-08T00:10:00.048Z,75.77
2022-12-08T00:13:03.082Z,75.64
2022-12-08T00:16:05.863Z,75.75
2022-12-08T00:19:11.322Z,75.36
2022-12-08T00:22:14.821Z,75.34
2022-12-08T00:25:17.892Z,74.21
2022-12-08T00:28:20.384Z,73.78
2022-12-08T00:31:23.406Z,73.48
2022-12-08T00:34:26.340Z,73.47
2022-12-08T00:37:29.241Z,74.54
2022-12-08T00:40:31.798Z,75.03
2022-12-08T00:43:34.908Z,75.06
2022-12-08T00:46:37.663Z,74.59
2022-12-08T00:49:41.191Z,74.56
2022-12-08T00:52:43.743Z,74.77
2022-12-08T00:55:46.782Z,74.26
2022-12-08T00:58:49.470Z,74.64
2022-12-08T01:01:52.482Z,75.76
2022-12-08T01:04:54.943Z,75.85
2022-12-08T01:07:57.990Z,75.86
2022-12-08T01:11:09.340Z,76.24
2022-12-08T01:14:13.237Z,76.05
2022-12-08T01:17:15.747Z,76.09
2022-12-08T01:20:18.804Z,76.17
2022-12-08T01:23:22.639Z,75.41
2022-12-08T01:26:25.825Z,76.45
2022-12-08T01:29:28.374Z,76.96
2022-12-08T01:32:31.391Z,76.98
2022-12-08T01:35:34.459Z,76.92
2022-12-08T01:38:37.604Z,76.72
2022-12-08T01:41:40.226Z,76.87
2022-12-08T01:44:43.165Z,77.16
2022-12-08T01:47:50.130Z,77.56
2022-12-08T01:50:55.695Z,77.46
2022-12-08T01:53:58.252Z,77.85
2022-12-08T01:57:06.459Z,77.42
2022-12-08T02:00:12.834Z,77.61
2022-12-08T02:03:22.481Z,77.93
2022-12-08T02:06:27.386Z,78.65
2022-12-08T02:09:30.448Z,78.37
2022-12-08T02:12:33.060Z,78.54
2022-12-08T02:15:46.075Z,78.55
2022-12-08T02:19:30.226Z,79.14
2022-12-08T02:22:57.281Z,78.40
2022-12-08T02:26:33.846Z,78.69
2022-12-08T02:29:52.787Z,78.80
2022-12-08T02:33:13.950Z,78.88
2022-12-08T02:36:38.920Z,79.56
2022-12-08T02:39:58.200Z,79.33
2022-12-08T02:43:07.417Z,78.99
2022-12-08T02:46:21.199Z,79.32
2022-12-08T02:49:32.836Z,79.01
2022-12-08T02:52:40.696Z,78.83
2022-12-08T02:56:01.680Z,79.05
2022-12-08T02:59:10.006Z,79.07
2022-12-08T03:02:38.257Z,79.22
2022-12-08T03:05:53.243Z,79.08
2022-12-08T03:09:20.469Z,79.23
2022-12-08T03:12:31.603Z,79.21
2022-12-08T03:15:37.237Z,79.31
2022-12-08T03:18:44.335Z,78.82
2022-12-08T03:21:52.462Z,78.94
2022-12-08T03:24:56.556Z,78.64
2022-12-08T03:28:00.246Z,78.78
2022-12-08T03:31:07.546Z,78.90
2022-12-08T03:34:13.080Z,79.20
2022-12-08T03:37:16.291Z,79.22
2022-12-08T03:40:20.633Z,78.65
2022-12-08T03:43:23.067Z,78.84
2022-12-08T03:49:29.765Z,77.23
2022-12-08T03:52:32.795Z,77.93
2022-12-08T03:55:35.270Z,77.52
2022-12-08T03:58:38.238Z,76.65
2022-12-08T04:01:40.706Z,76.51
2022-12-08T04:04:44.159Z,76.54
2022-12-08T04:07:46.693Z,77.12
2022-12-08T04:10:49.776Z,75.68
2022-12-08T04:13:52.551Z,75.13
2022-12-08T04:16:55.612Z,75.60
2022-12-08T04:19:58.017Z,75.87
2022-12-08T04:23:01.027Z,76.05
2022-12-08T04:26:04.610Z,75.75
2022-12-08T04:29:07.645Z,75.33
2022-12-08T04:32:10.206Z,75.97
2022-12-08T04:35:13.271Z,75.68
2022-12-08T04:38:16.638Z,75.97
2022-12-08T04:41:19.834Z,75.68
2022-12-08T04:44:22.291Z,76.22
2022-12-08T04:47:25.547Z,75.39
2022-12-08T04:50:28.638Z,75.69
2022-12-08T04:53:31.905Z,76.39
2022-12-08T04:56:34.617Z,75.91
2022-12-08T04:59:37.710Z,75.48
2022-12-08T05:02:40.643Z,75.93
2022-12-08T05:05:43.644Z,75.17
2022-12-08T05:08:46.061Z,74.72
2022-12-08T05:11:49.456Z,74.48
2022-12-08T05:14:52.028Z,75.15
2022-12-08T05:17:55.188Z,75.44
2022-12-08T05:20:57.673Z,76.23
2022-12-08T05:24:00.666Z,76.98
2022-12-08T05:27:03.270Z,77.44
2022-12-08T05:30:07.293Z,77.92
2022-12-08T05:33:09.886Z,78.51
2022-12-08T05:36:14.811Z,78.33
2022-12-08T05:39:17.435Z,78.98
2022-12-08T05:42:24.539Z,78.80
2022-12-08T05:45:27.534Z,78.64
2022-12-08T05:48:30.734Z,78.40
2022-12-08T05:51:33.398Z,78.46
2022-12-08T05:54:39.706Z,78.79
2022-12-08T05:57:42.196Z,78.93
2022-12-08T06:00:46.640Z,79.12
2022-12-08T06:03:49.774Z,78.65
2022-12-08T06:06:52.675Z,78.87
2022-12-08T06:09:55.379Z,79.00
2022-12-08T06:12:58.133Z,78.54
2022-12-08T06:16:07.331Z,78.47
2022-12-08T06:19:10.199Z,78.73
2022-12-08T06:22:12.915Z,78.77
2022-12-08T06:25:15.718Z,77.75
2022-12-08T06:28:18.898Z,77.55
2022-12-08T06:31:24.169Z,77.40
2022-12-08T06:34:27.116Z,77.37
2022-12-08T06:37:29.840Z,77.66
2022-12-08T06:40:32.765Z,77.22
2022-12-08T06:43:35.711Z,76.85
2022-12-08T06:46:38.434Z,76.22
2022-12-08T06:49:41.138Z,76.39
2022-12-08T06:52:54.200Z,76.14
2022-12-08T06:56:01.339Z,76.81
2022-12-08T06:59:04.407Z,76.78
2022-12-08T07:02:07.480Z,76.07
2022-12-08T07:05:10.285Z,75.20
2022-12-08T07:08:13.132Z,75.32
2022-12-08T07:11:21.109Z,75.06
2022-12-08T07:14:25.137Z,75.68
2022-12-08T07:17:27.831Z,75.90
2022-12-08T07:20:30.662Z,75.08
2022-12-08T07:23:33.797Z,75.15
2022-12-08T07:26:36.521Z,75.09
2022-12-08T07:29:39.239Z,75.23
2022-12-08T07:32:41.999Z,75.28
2022-12-08T07:35:49.098Z,74.90
2022-12-08T07:38:56.779Z,75.30
2022-12-08T07:41:59.782Z,75.61
2022-12-08T07:45:02.875Z,75.84
2022-12-08T07:48:06.116Z,75.30
2022-12-08T07:51:11.615Z,75.07
2022-12-08T07:54:16.873Z,74.45
2022-12-08T07:57:19.705Z,74.18
2022-12-08T08:00:22.628Z,74.55
2022-12-08T08:03:25.743Z,73.78
2022-12-08T08:06:28.776Z,73.13
2022-12-08T08:09:31.918Z,72.41
2022-12-08T08:12:34.589Z,71.63
2022-12-08T08:15:37.809Z,70.48
2022-12-08T08:18:40.797Z,69.07
2022-12-08T08:21:45.921Z,68.20
2022-12-08T08:24:48.916Z,67.78
2022-12-08T08:27:52.091Z,66.86
2022-12-08T08:30:55.081Z,67.37
2022-12-08T08:34:00.444Z,67.73
2022-12-08T08:37:03.089Z,67.52
2022-12-08T08:40:06.749Z,67.17
2022-12-08T08:43:09.393Z,66.59
2022-12-08T08:46:12.655Z,66.88
2022-12-08T08:49:15.150Z,66.65
2022-12-08T08:52:18.460Z,65.54
2022-12-08T08:55:21.078Z,65.14
2022-12-08T08:58:24.183Z,64.31
2022-12-08T09:01:28.175Z,64.72
2022-12-08T09:04:34.493Z,64.51
2022-12-08T09:07:37.152Z,64.87
2022-12-08T09:10:40.233Z,65.21
2022-12-08T09:13:42.873Z,65.88
2022-12-08T09:16:46.036Z,66.01
2022-12-08T09:19:48.512Z,66.50
2022-12-08T09:22:51.719Z,65.71
2022-12-08T09:25:54.236Z,67.20
2022-12-08T09:28:57.763Z,67.09
2022-12-08T09:32:00.340Z,66.06
2022-12-08T09:35:03.729Z,66.72
2022-12-08T09:38:06.191Z,67.64
2022-12-08T09:41:48.392Z,66.97
2022-12-08T09:44:51.754Z,67.89
2022-12-08T09:48:01.046Z,66.93
2022-12-08T09:51:05.001Z,68.08
2022-12-08T09:54:22.486Z,68.08
2022-12-08T09:57:25.855Z,68.41
2022-12-08T10:00:29.193Z,68.04
2022-12-08T10:03:31.921Z,68.04
2022-12-08T10:06:50.950Z,67.90
2022-12-08T10:10:19.955Z,68.32
2022-12-08T10:13:42.407Z,68.26
2022-12-08T10:16:49.993Z,67.97
2022-12-08T10:20:04.252Z,68.08
2022-12-08T10:23:13.844Z,67.78
2022-12-08T10:26:19.898Z,67.28
2022-12-08T10:29:22.815Z,67.06
2022-12-08T10:32:34.181Z,67.61
2022-12-08T10:35:43.094Z,66.98
2022-12-08T10:38:45.896Z,67.08
2022-12-08T10:41:51.170Z,66.38
2022-12-08T10:44:58.365Z,65.75
2022-12-08T10:48:04.612Z,66.25
2022-12-08T10:51:35.668Z,66.91
2022-12-08T10:54:42.966Z,66.44
2022-12-08T10:57:46.462Z,66.28
2022-12-08T11:00:53.572Z,65.58
2022-12-08T11:03:59.368Z,65.25
2022-12-08T11:07:04.771Z,64.85
2022-12-08T11:10:17.888Z,65.41
2022-12-08T11:13:27.590Z,64.56
2022-12-08T11:16:31.057Z,64.61
2022-12-08T11:19:39.134Z,63.79
2022-12-08T11:22:50.672Z,62.37
2022-12-08T11:25:56.220Z,62.06
2022-12-08T11:28:59.222Z,61.44
2022-12-08T11:32:17.853Z,61.73
2022-12-08T11:35:27.070Z,61.33
2022-12-08T11:38:33.160Z,61.83
2022-12-08T11:41:43.069Z,62.82
2022-12-08T11:44:53.556Z,63.63
2022-12-08T11:48:02.118Z,63.46
2022-12-08T11:51:31.164Z,62.14
2022-12-08T11:54:46.264Z,62.91
2022-12-08T11:57:52.031Z,62.34
2022-12-08T12:00:54.890Z,62.41
2022-12-08T12:04:23.205Z,63.12
2022-12-08T12:08:11.197Z,62.69
2022-12-08T12:11:45.721Z,63.09
2022-12-08T12:15:04.107Z,63.21
2022-12-08T12:18:16.270Z,63.62
2022-12-08T12:21:26.383Z,63.84
2022-12-08T12:24:36.245Z,63.51
2022-12-08T12:27:40.579Z,62.41
2022-12-08T12:31:18.459Z,62.74
2022-12-08T12:34:25.965Z,63.35
2022-12-08T12:37:41.749Z,62.62
2022-12-08T12:40:44.684Z,63.37
2022-12-08T12:44:09.333Z,62.73
2022-12-08T12:47:15.030Z,62.50
2022-12-08T12:50:39.058Z,63.05
2022-12-08T12:53:41.719Z,62.55
2022-12-08T12:57:16.002Z,62.57
2022-12-08T13:00:24.279Z,63.16
2022-12-08T13:03:28.093Z,63.06
2022-12-08T13:06:48.301Z,62.78
2022-12-08T13:09:58.830Z,62.13
2022-12-08T13:13:21.970Z,63.08
2022-12-08T13:16:27.751Z,62.15
2022-12-08T13:19:33.523Z,62.41
2022-12-08T13:23:01.778Z,62.66
2022-12-08T13:26:20.708Z,61.42
2022-12-08T13:29:26.961Z,62.09
2022-12-08T13:32:39.035Z,62.26
2022-12-08T13:36:21.280Z,61.12
2022-12-08T13:39:39.350Z,60.67
2022-12-08T13:43:01.877Z,61.98
2022-12-08T13:47:02.834Z,62.49
2022-12-08T13:57:08.533Z,63.10
2022-12-08T14:00:20.683Z,63.93
2022-12-08T14:03:23.743Z,64.50
2022-12-08T14:06:36.137Z,64.49
2022-12-08T14:09:41.182Z,64.55
2022-12-08T14:12:47.911Z,64.24
2022-12-08T14:15:50.779Z,64.97
2022-12-08T14:18:53.628Z,62.20
2022-12-08T14:22:17.108Z,62.24
2022-12-08T14:25:21.651Z,62.96
2022-12-08T14:28:24.951Z,63.05
2022-12-08T14:31:29.299Z,63.77
2022-12-08T14:34:40.420Z,63.39
2022-12-08T14:37:46.550Z,64.15
2022-12-08T14:41:01.055Z,64.16
2022-12-08T14:44:22.913Z,63.84
2022-12-08T14:47:31.139Z,63.67
2022-12-08T14:50:37.027Z,63.49
2022-12-08T14:53:43.312Z,63.76
2022-12-08T14:56:52.312Z,64.07
2022-12-08T14:59:55.269Z,64.71
2022-12-08T15:02:58.101Z,64.46
2022-12-08T15:06:06.303Z,65.02
2022-12-08T15:09:18.503Z,65.80
2022-12-08T15:12:27.386Z,65.96
2022-12-08T15:15:32.756Z,65.90
2022-12-08T15:18:38.094Z,65.65
2022-12-08T15:21:41.607Z,65.50
2022-12-08T15:24:44.267Z,66.08
2022-12-08T15:27:50.406Z,65.69
2022-12-08T15:30:54.292Z,64.61
2022-12-08T15:33:57.075Z,64.95
2022-12-08T15:36:59.838Z,64.60
2022-12-08T15:40:03.136Z,65.23
2022-12-08T15:43:06.235Z,64.88
2022-12-08T15:46:09.154Z,64.81
2022-12-08T15:49:23.601Z,64.98
2022-12-08T15:52:26.317Z,66.21
2022-12-08T15:55:31.124Z,65.04
2022-12-08T15:58:54.739Z,65.26
2022-12-08T16:01:58.436Z,65.50
2022-12-08T16:08:45.831Z,65.83
2022-12-08T16:12:08.230Z,66.21
2022-12-08T16:18:40.089Z,67.12
2022-12-08T16:25:22.455Z,67.23
2022-12-08T16:28:53.025Z,69.02
2022-12-08T16:31:50.270Z,67.91
2022-12-08T16:34:53.178Z,69.39
2022-12-08T16:37:56.245Z,69.04
2022-12-08T16:41:17.519Z,68.63
2022-12-08T16:44:20.512Z,69.39
2022-12-08T16:47:22.941Z,69.58
2022-12-08T16:50:32.191Z,69.18
2022-12-08T16:53:34.637Z,69.25
2022-12-08T16:56:37.856Z,70.19
2022-12-08T16:59:40.471Z,70.11
2022-12-08T17:02:44.851Z,70.41
2022-12-08T17:05:47.366Z,71.28
2022-12-08T17:08:50.383Z,71.20
2022-12-08T17:11:52.843Z,71.53
2022-12-08T17:14:55.898Z,71.31
2022-12-08T17:17:58.420Z,70.85
2022-12-08T17:21:01.471Z,69.69
2022-12-08T17:24:04.676Z,69.51
2022-12-08T17:27:07.645Z,69.37
2022-12-08T17:30:12.536Z,69.33
2022-12-08T17:33:15.780Z,69.40
2022-12-08T17:36:18.290Z,68.87
2022-12-08T17:39:21.407Z,69.25
2022-12-08T17:42:26.077Z,70.32
2022-12-08T17:45:29.194Z,70.17
2022-12-08T17:48:31.821Z,69.69
2022-12-08T17:51:34.860Z,69.53
2022-12-08T17:54:38.211Z,69.39
2022-12-08T17:57:41.523Z,69.31
2022-12-08T18:00:44.051Z,69.40
2022-12-08T18:03:47.223Z,69.87
2022-12-08T18:06:49.720Z,69.49
2022-12-08T18:09:52.803Z,69.63
2022-12-08T18:12:55.599Z,69.29
2022-12-08T18:15:58.718Z,69.97
2022-12-08T18:19:01.217Z,69.81
2022-12-08T18:22:04.380Z,69.93
2022-12-08T18:25:07.393Z,70.15
2022-12-08T18:28:10.573Z,70.44
2022-12-08T18:31:17.692Z,70.28
2022-12-08T18:34:20.870Z,70.33
2022-12-08T18:37:23.551Z,69.63
2022-12-08T18:40:27.968Z,69.66
2022-12-08T18:43:30.419Z,70.05
2022-12-08T18:46:33.484Z,70.12
2022-12-08T18:49:36.055Z,70.61
2022-12-08T18:52:39.162Z,70.59
2022-12-08T18:55:41.660Z,69.39
2022-12-08T18:58:44.671Z,69.62
2022-12-08T19:01:47.223Z,69.16
2022-12-08T19:04:50.347Z,68.75
2022-12-08T19:07:52.863Z,69.09
2022-12-08T19:10:55.964Z,68.81
2022-12-08T19:13:58.463Z,68.99
2022-12-08T19:17:01.882Z,68.56
2022-12-08T19:20:05.909Z,68.76
2022-12-08T19:23:09.187Z,69.52
2022-12-08T19:26:12.249Z,70.78
2022-12-08T19:29:15.533Z,70.96
2022-12-08T19:32:18.362Z,71.23
2022-12-08T19:35:21.770Z,70.83
2022-12-08T19:38:24.386Z,71.13
2022-12-08T19:41:46.792Z,71.31
2022-12-08T19:44:55.634Z,71.39
2022-12-08T19:47:58.733Z,71.42
2022-12-08T19:51:01.234Z,70.81
2022-12-08T19:54:04.463Z,70.79
2022-12-08T19:57:07.050Z,70.75
2022-12-08T20:00:12.456Z,70.65
2022-12-08T20:03:17.035Z,71.42
2022-12-08T20:06:27.531Z,71.80
2022-12-08T20:09:30.377Z,71.98
2022-12-08T20:12:33.166Z,72.24
2022-12-08T20:15:35.963Z,72.18
2022-12-08T20:18:39.978Z,72.81
2022-12-08T20:21:42.831Z,72.61
2022-12-08T20:24:49.161Z,72.76
2022-12-08T20:27:57.468Z,72.81
2022-12-08T20:31:00.800Z,72.76
2022-12-08T20:34:03.823Z,72.98
2022-12-08T20:37:06.604Z,72.03
2022-12-08T20:40:10.216Z,72.70
2022-12-08T20:43:12.961Z,71.94
2022-12-08T20:46:17.464Z,72.52
2022-12-08T20:49:20.662Z,72.88
2022-12-08T20:52:23.852Z,72.70
2022-12-08T20:55:26.950Z,73.47
2022-12-08T20:58:29.807Z,73.66
2022-12-08T21:01:32.954Z,74.26
2022-12-08T21:04:36.146Z,74.63
2022-12-08T21:07:39.024Z,74.72
2022-12-08T21:10:43.938Z,75.00
2022-12-08T21:13:47.287Z,74.84
2022-12-08T21:16:50.976Z,74.75
2022-12-08T21:19:54.042Z,75.02
2022-12-08T21:22:56.995Z,75.17
2022-12-08T21:25:59.794Z,75.44
2022-12-08T21:29:02.624Z,75.59
2022-12-08T21:32:06.018Z,75.62
2022-12-08T21:35:09.075Z,75.73
2022-12-08T21:38:12.065Z,75.88
2022-12-08T21:41:38.019Z,76.24
2022-12-08T21:44:41.108Z,75.78
2022-12-08T21:47:45.716Z,76.03
2022-12-08T21:50:48.750Z,75.26
2022-12-08T21:53:51.704Z,74.48
2022-12-08T21:56:54.429Z,74.45
2022-12-08T21:59:57.651Z,75.04
2022-12-08T22:03:00.650Z,75.99
2022-12-08T22:06:08.832Z,76.13
2022-12-08T22:09:13.478Z,76.27
2022-12-08T22:12:17.233Z,76.30
2022-12-08T22:15:19.897Z,76.58
2022-12-08T22:18:22.608Z,77.00
2022-12-08T22:21:25.616Z,77.04
2022-12-08T22:24:31.816Z,77.28
2022-12-08T22:27:34.676Z,77.19
2022-12-08T22:30:39.319Z,77.52
2022-12-08T22:33:43.625Z,77.21
2022-12-08T22:36:46.469Z,77.18
2022-12-08T22:39:49.516Z,77.80
2022-12-08T22:42:52.405Z,77.59
2022-12-08T22:45:55.149Z,77.62
2022-12-08T22:48:58.005Z,77.82
2022-12-08T22:52:01.037Z,77.73
2022-12-08T22:55:04.129Z,77.89
2022-12-08T22:58:07.094Z,77.77
2022-12-08T23:01:23.622Z,77.72
2022-12-08T23:04:26.639Z,77.72
2022-12-08T23:07:29.590Z,78.00
2022-12-08T23:10:33.347Z,77.61
2022-12-08T23:13:37.162Z,77.67
2022-12-08T23:16:40.456Z,77.45
2022-12-08T23:19:43.483Z,78.03
2022-12-08T23:22:46.340Z,78.49
2022-12-08T23:25:49.329Z,78.46
2022-12-08T23:28:52.756Z,78.15
2022-12-08T23:31:55.983Z,78.35
2022-12-08T23:34:59.016Z,78.76
2022-12-08T23:38:01.834Z,78.80
2022-12-08T23:41:06.652Z,78.53
2022-12-08T23:44:11.954Z,78.99
2022-12-08T23:47:14.727Z,78.85
2022-12-08T23:50:17.657Z,79.09
2022-12-08T23:53:20.440Z,79.13
2022-12-08T23:56:28.327Z,79.45
2022-12-08T23:59:33.338Z,79.31
